sensor_id;sensor_type;location;lat;lon;timestamp;temperature;humidity
831;DHT22;397;50.564;7.272;2022-12-11T00:01:43;0.30;99.90
831;DHT22;397;50.564;7.272;2022-12-11T00:04:10;0.30;99.90
831;DHT22;397;50.564;7.272;2022-12-11T00:06:38;0.40;99.90
831;DHT22;397;50.564;7.272;2022-12-11T00:09:05;0.40;99.90
831;DHT22;397;50.564;7.272;2022-12-11T00:11:33;0.20;99.90
831;DHT22;397;50.564;7.272;2022-12-11T00:14:00;0.20;99.90
831;DHT22;397;50.564;7.272;2022-12-11T00:16:28;0.10;99.90
831;DHT22;397;50.564;7.272;2022-12-11T00:18:55;0.20;99.90
831;DHT22;397;50.564;7.272;2022-12-11T00:21:22;0.40;99.90
831;DHT22;397;50.564;7.272;2022-12-11T00:23:50;0.50;99.90
831;DHT22;397;50.564;7.272;2022-12-11T00:26:18;0.60;99.90
831;DHT22;397;50.564;7.272;2022-12-11T00:28:46;0.50;99.90
831;DHT22;397;50.564;7.272;2022-12-11T00:31:15;0.30;99.90
831;DHT22;397;50.564;7.272;2022-12-11T00:33:44;0.40;99.90
831;DHT22;397;50.564;7.272;2022-12-11T00:36:21;0.50;99.90
831;DHT22;397;50.564;7.272;2022-12-11T00:38:48;0.50;99.90
831;DHT22;397;50.564;7.272;2022-12-11T00:41:16;0.60;99.90
831;DHT22;397;50.564;7.272;2022-12-11T00:43:44;0.50;99.90
831;DHT22;397;50.564;7.272;2022-12-11T00:46:12;0.40;99.90
831;DHT22;397;50.564;7.272;2022-12-11T00:48:39;0.60;99.90
831;DHT22;397;50.564;7.272;2022-12-11T00:51:07;0.70;99.90
831;DHT22;397;50.564;7.272;2022-12-11T00:53:35;0.60;99.90
831;DHT22;397;50.564;7.272;2022-12-11T00:56:10;0.50;99.90
831;DHT22;397;50.564;7.272;2022-12-11T00:58:38;0.50;99.90
831;DHT22;397;50.564;7.272;2022-12-11T01:01:19;0.50;99.90
831;DHT22;397;50.564;7.272;2022-12-11T01:03:42;0.60;99.90
831;DHT22;397;50.564;7.272;2022-12-11T01:06:19;0.60;99.90
831;DHT22;397;50.564;7.272;2022-12-11T01:08:47;0.60;99.90
831;DHT22;397;50.564;7.272;2022-12-11T01:11:16;0.70;99.90
831;DHT22;397;50.564;7.272;2022-12-11T01:13:44;0.70;99.90
831;DHT22;397;50.564;7.272;2022-12-11T01:16:13;0.60;99.90
831;DHT22;397;50.564;7.272;2022-12-11T01:18:41;0.70;99.90
831;DHT22;397;50.564;7.272;2022-12-11T01:21:11;0.70;99.90
831;DHT22;397;50.564;7.272;2022-12-11T01:23:39;0.70;99.90
831;DHT22;397;50.564;7.272;2022-12-11T01:26:13;0.70;99.90
831;DHT22;397;50.564;7.272;2022-12-11T01:28:38;0.60;99.90
831;DHT22;397;50.564;7.272;2022-12-11T01:31:10;0.80;99.90
831;DHT22;397;50.564;7.272;2022-12-11T01:33:39;0.70;99.90
831;DHT22;397;50.564;7.272;2022-12-11T01:36:12;0.70;99.90
831;DHT22;397;50.564;7.272;2022-12-11T01:38:40;0.80;99.90
831;DHT22;397;50.564;7.272;2022-12-11T01:41:08;0.90;99.90
831;DHT22;397;50.564;7.272;2022-12-11T01:46:24;0.80;99.90
831;DHT22;397;50.564;7.272;2022-12-11T01:48:51;0.70;99.90
831;DHT22;397;50.564;7.272;2022-12-11T01:51:20;0.60;99.90
831;DHT22;397;50.564;7.272;2022-12-11T01:53:57;0.70;99.90
831;DHT22;397;50.564;7.272;2022-12-11T01:56:21;0.70;99.90
831;DHT22;397;50.564;7.272;2022-12-11T01:58:55;0.70;99.90
831;DHT22;397;50.564;7.272;2022-12-11T02:01:27;0.80;99.90
831;DHT22;397;50.564;7.272;2022-12-11T02:03:54;0.80;99.90
831;DHT22;397;50.564;7.272;2022-12-11T02:06:37;0.70;99.90
831;DHT22;397;50.564;7.272;2022-12-11T02:09:02;0.80;99.90
831;DHT22;397;50.564;7.272;2022-12-11T02:12:02;0.90;99.90
831;DHT22;397;50.564;7.272;2022-12-11T02:17:17;0.70;99.90
831;DHT22;397;50.564;7.272;2022-12-11T02:25:42;0.70;99.90
831;DHT22;397;50.564;7.272;2022-12-11T02:30:57;0.90;99.90
831;DHT22;397;50.564;7.272;2022-12-11T02:33:25;0.90;99.90
831;DHT22;397;50.564;7.272;2022-12-11T02:35:52;0.90;99.90
831;DHT22;397;50.564;7.272;2022-12-11T02:38:29;0.90;99.90
831;DHT22;397;50.564;7.272;2022-12-11T02:40:57;0.90;99.90
831;DHT22;397;50.564;7.272;2022-12-11T02:43:26;0.80;99.90
831;DHT22;397;50.564;7.272;2022-12-11T02:45:56;0.80;99.90
831;DHT22;397;50.564;7.272;2022-12-11T02:48:24;0.90;99.90
831;DHT22;397;50.564;7.272;2022-12-11T02:50:54;0.90;99.90
831;DHT22;397;50.564;7.272;2022-12-11T02:53:25;0.90;99.90
831;DHT22;397;50.564;7.272;2022-12-11T02:56:04;0.90;99.90
831;DHT22;397;50.564;7.272;2022-12-11T02:58:31;1.00;99.90
831;DHT22;397;50.564;7.272;2022-12-11T03:01:00;0.90;99.90
831;DHT22;397;50.564;7.272;2022-12-11T03:03:28;0.80;99.90
831;DHT22;397;50.564;7.272;2022-12-11T03:05:56;0.80;99.90
831;DHT22;397;50.564;7.272;2022-12-11T03:08:24;0.80;99.90
831;DHT22;397;50.564;7.272;2022-12-11T03:10:51;0.70;99.90
831;DHT22;397;50.564;7.272;2022-12-11T03:13:20;0.80;99.90
831;DHT22;397;50.564;7.272;2022-12-11T03:15:57;0.80;99.90
831;DHT22;397;50.564;7.272;2022-12-11T03:18:29;0.90;99.90
831;DHT22;397;50.564;7.272;2022-12-11T03:21:43;0.90;99.90
831;DHT22;397;50.564;7.272;2022-12-11T03:23:40;0.90;99.90
831;DHT22;397;50.564;7.272;2022-12-11T03:26:07;0.90;99.90
831;DHT22;397;50.564;7.272;2022-12-11T03:32:01;0.80;99.90
831;DHT22;397;50.564;7.272;2022-12-11T03:33:45;0.90;99.90
831;DHT22;397;50.564;7.272;2022-12-11T03:36:29;1.00;99.90
831;DHT22;397;50.564;7.272;2022-12-11T03:38:57;1.00;99.90
831;DHT22;397;50.564;7.272;2022-12-11T03:41:23;0.90;99.90
831;DHT22;397;50.564;7.272;2022-12-11T03:43:55;0.80;99.90
831;DHT22;397;50.564;7.272;2022-12-11T03:46:35;0.90;99.90
831;DHT22;397;50.564;7.272;2022-12-11T03:48:55;0.90;99.90
831;DHT22;397;50.564;7.272;2022-12-11T03:51:24;1.00;99.90
831;DHT22;397;50.564;7.272;2022-12-11T03:53:52;1.00;99.90
831;DHT22;397;50.564;7.272;2022-12-11T03:56:21;1.00;99.90
831;DHT22;397;50.564;7.272;2022-12-11T03:58:50;1.10;99.90
831;DHT22;397;50.564;7.272;2022-12-11T04:01:17;1.10;99.90
831;DHT22;397;50.564;7.272;2022-12-11T04:03:45;1.10;99.90
831;DHT22;397;50.564;7.272;2022-12-11T04:06:12;1.10;99.90
831;DHT22;397;50.564;7.272;2022-12-11T04:08:40;1.00;99.90
831;DHT22;397;50.564;7.272;2022-12-11T04:11:08;1.00;99.90
831;DHT22;397;50.564;7.272;2022-12-11T04:13:54;1.10;99.90
831;DHT22;397;50.564;7.272;2022-12-11T04:16:40;1.10;99.90
831;DHT22;397;50.564;7.272;2022-12-11T04:19:08;1.10;99.90
831;DHT22;397;50.564;7.272;2022-12-11T04:21:53;1.10;99.90
831;DHT22;397;50.564;7.272;2022-12-11T04:24:41;1.00;99.90
831;DHT22;397;50.564;7.272;2022-12-11T04:27:09;0.90;99.90
831;DHT22;397;50.564;7.272;2022-12-11T04:29:36;0.90;99.90
831;DHT22;397;50.564;7.272;2022-12-11T04:32:04;0.70;99.90
831;DHT22;397;50.564;7.272;2022-12-11T04:34:31;0.80;99.90
831;DHT22;397;50.564;7.272;2022-12-11T04:36:59;0.80;99.90
831;DHT22;397;50.564;7.272;2022-12-11T04:39:26;0.80;99.90
831;DHT22;397;50.564;7.272;2022-12-11T04:41:54;0.70;99.90
831;DHT22;397;50.564;7.272;2022-12-11T04:44:21;0.90;99.90
831;DHT22;397;50.564;7.272;2022-12-11T04:46:48;0.80;99.90
831;DHT22;397;50.564;7.272;2022-12-11T04:49:16;0.90;99.90
831;DHT22;397;50.564;7.272;2022-12-11T04:51:43;0.90;99.90
831;DHT22;397;50.564;7.272;2022-12-11T04:54:11;0.90;99.90
831;DHT22;397;50.564;7.272;2022-12-11T04:56:38;0.80;99.90
831;DHT22;397;50.564;7.272;2022-12-11T04:59:06;0.80;99.90
831;DHT22;397;50.564;7.272;2022-12-11T05:01:33;0.90;99.90
831;DHT22;397;50.564;7.272;2022-12-11T05:04:01;0.90;99.90
831;DHT22;397;50.564;7.272;2022-12-11T05:06:28;0.80;99.90
831;DHT22;397;50.564;7.272;2022-12-11T05:08:56;0.70;99.90
831;DHT22;397;50.564;7.272;2022-12-11T05:11:23;0.70;99.90
831;DHT22;397;50.564;7.272;2022-12-11T05:13:51;0.90;99.90
831;DHT22;397;50.564;7.272;2022-12-11T05:16:18;1.00;99.90
831;DHT22;397;50.564;7.272;2022-12-11T05:18:46;1.00;99.90
831;DHT22;397;50.564;7.272;2022-12-11T05:21:14;0.80;99.90
831;DHT22;397;50.564;7.272;2022-12-11T05:23:42;1.00;99.90
831;DHT22;397;50.564;7.272;2022-12-11T05:26:18;1.00;99.90
831;DHT22;397;50.564;7.272;2022-12-11T05:28:51;1.00;99.90
831;DHT22;397;50.564;7.272;2022-12-11T05:31:25;0.90;99.90
831;DHT22;397;50.564;7.272;2022-12-11T05:33:53;1.00;99.90
831;DHT22;397;50.564;7.272;2022-12-11T05:36:23;1.00;99.90
831;DHT22;397;50.564;7.272;2022-12-11T05:38:51;0.90;99.90
831;DHT22;397;50.564;7.272;2022-12-11T05:41:21;0.90;99.90
831;DHT22;397;50.564;7.272;2022-12-11T05:43:50;0.90;99.90
831;DHT22;397;50.564;7.272;2022-12-11T05:46:20;0.90;99.90
831;DHT22;397;50.564;7.272;2022-12-11T05:48:50;1.00;99.90
831;DHT22;397;50.564;7.272;2022-12-11T05:51:18;0.80;99.90
831;DHT22;397;50.564;7.272;2022-12-11T05:53:48;0.90;99.90
831;DHT22;397;50.564;7.272;2022-12-11T05:56:19;0.70;99.90
831;DHT22;397;50.564;7.272;2022-12-11T05:58:47;0.70;99.90
831;DHT22;397;50.564;7.272;2022-12-11T06:01:24;0.80;99.90
831;DHT22;397;50.564;7.272;2022-12-11T06:03:53;0.80;99.90
831;DHT22;397;50.564;7.272;2022-12-11T06:06:21;0.80;99.90
831;DHT22;397;50.564;7.272;2022-12-11T06:08:50;0.90;99.90
831;DHT22;397;50.564;7.272;2022-12-11T06:11:18;0.90;99.90
831;DHT22;397;50.564;7.272;2022-12-11T06:13:46;0.90;99.90
831;DHT22;397;50.564;7.272;2022-12-11T06:16:14;0.90;99.90
831;DHT22;397;50.564;7.272;2022-12-11T06:18:43;0.80;99.90
831;DHT22;397;50.564;7.272;2022-12-11T06:21:20;0.90;99.90
831;DHT22;397;50.564;7.272;2022-12-11T06:23:49;0.90;99.90
831;DHT22;397;50.564;7.272;2022-12-11T06:26:17;0.90;99.90
831;DHT22;397;50.564;7.272;2022-12-11T06:28:45;0.90;99.90
831;DHT22;397;50.564;7.272;2022-12-11T06:31:14;1.00;99.90
831;DHT22;397;50.564;7.272;2022-12-11T06:33:42;1.00;99.90
831;DHT22;397;50.564;7.272;2022-12-11T06:36:16;0.90;99.90
831;DHT22;397;50.564;7.272;2022-12-11T06:38:40;0.70;99.90
831;DHT22;397;50.564;7.272;2022-12-11T06:41:08;0.80;99.90
831;DHT22;397;50.564;7.272;2022-12-11T06:43:37;1.00;99.90
831;DHT22;397;50.564;7.272;2022-12-11T06:46:07;0.90;99.90
831;DHT22;397;50.564;7.272;2022-12-11T06:48:35;1.00;99.90
831;DHT22;397;50.564;7.272;2022-12-11T06:51:07;1.00;99.90
831;DHT22;397;50.564;7.272;2022-12-11T06:53:35;0.90;99.90
831;DHT22;397;50.564;7.272;2022-12-11T06:56:04;0.90;99.90
831;DHT22;397;50.564;7.272;2022-12-11T06:58:33;1.00;99.90
831;DHT22;397;50.564;7.272;2022-12-11T07:01:02;1.00;99.90
831;DHT22;397;50.564;7.272;2022-12-11T07:03:30;1.00;99.90
831;DHT22;397;50.564;7.272;2022-12-11T07:06:01;1.00;99.90
831;DHT22;397;50.564;7.272;2022-12-11T07:08:29;1.10;99.90
831;DHT22;397;50.564;7.272;2022-12-11T07:11:13;1.00;99.90
831;DHT22;397;50.564;7.272;2022-12-11T07:13:36;1.00;99.90
831;DHT22;397;50.564;7.272;2022-12-11T07:16:04;1.10;99.90
831;DHT22;397;50.564;7.272;2022-12-11T07:18:34;1.10;99.90
831;DHT22;397;50.564;7.272;2022-12-11T07:21:01;1.00;99.90
831;DHT22;397;50.564;7.272;2022-12-11T07:23:29;1.10;99.90
831;DHT22;397;50.564;7.272;2022-12-11T07:25:56;1.10;99.90
831;DHT22;397;50.564;7.272;2022-12-11T07:28:24;1.10;99.90
831;DHT22;397;50.564;7.272;2022-12-11T07:30:51;1.20;99.90
831;DHT22;397;50.564;7.272;2022-12-11T07:33:19;1.30;99.90
831;DHT22;397;50.564;7.272;2022-12-11T07:35:46;1.30;99.90
831;DHT22;397;50.564;7.272;2022-12-11T07:38:14;1.20;99.90
831;DHT22;397;50.564;7.272;2022-12-11T07:40:42;1.10;99.90
831;DHT22;397;50.564;7.272;2022-12-11T07:43:10;1.00;99.90
831;DHT22;397;50.564;7.272;2022-12-11T07:45:37;1.20;99.90
831;DHT22;397;50.564;7.272;2022-12-11T07:48:05;1.20;99.90
831;DHT22;397;50.564;7.272;2022-12-11T07:50:32;1.20;99.90
831;DHT22;397;50.564;7.272;2022-12-11T07:53:00;1.10;99.90
831;DHT22;397;50.564;7.272;2022-12-11T07:55:28;1.10;99.90
831;DHT22;397;50.564;7.272;2022-12-11T07:57:55;1.20;99.90
831;DHT22;397;50.564;7.272;2022-12-11T08:00:23;1.20;99.90
831;DHT22;397;50.564;7.272;2022-12-11T08:02:50;1.10;99.90
831;DHT22;397;50.564;7.272;2022-12-11T08:05:18;1.20;99.90
831;DHT22;397;50.564;7.272;2022-12-11T08:07:45;1.00;99.90
831;DHT22;397;50.564;7.272;2022-12-11T08:10:13;1.00;99.90
831;DHT22;397;50.564;7.272;2022-12-11T08:12:40;1.00;99.90
831;DHT22;397;50.564;7.272;2022-12-11T08:15:09;1.00;99.90
831;DHT22;397;50.564;7.272;2022-12-11T08:17:36;1.10;99.90
831;DHT22;397;50.564;7.272;2022-12-11T08:20:04;1.10;99.90
831;DHT22;397;50.564;7.272;2022-12-11T08:22:32;1.10;99.90
831;DHT22;397;50.564;7.272;2022-12-11T08:25:00;1.00;99.90
831;DHT22;397;50.564;7.272;2022-12-11T08:27:28;1.20;99.90
831;DHT22;397;50.564;7.272;2022-12-11T08:29:56;1.40;99.90
831;DHT22;397;50.564;7.272;2022-12-11T08:32:23;1.40;99.90
831;DHT22;397;50.564;7.272;2022-12-11T08:34:51;1.20;99.90
831;DHT22;397;50.564;7.272;2022-12-11T08:37:18;1.30;99.90
831;DHT22;397;50.564;7.272;2022-12-11T08:39:46;1.50;99.90
831;DHT22;397;50.564;7.272;2022-12-11T08:42:13;1.50;99.90
831;DHT22;397;50.564;7.272;2022-12-11T08:44:41;1.50;99.90
831;DHT22;397;50.564;7.272;2022-12-11T08:47:08;1.60;99.90
831;DHT22;397;50.564;7.272;2022-12-11T08:49:36;1.60;99.90
831;DHT22;397;50.564;7.272;2022-12-11T08:52:04;1.70;99.90
831;DHT22;397;50.564;7.272;2022-12-11T08:54:32;1.70;99.90
831;DHT22;397;50.564;7.272;2022-12-11T08:56:59;1.70;99.90
831;DHT22;397;50.564;7.272;2022-12-11T08:59:27;1.80;99.90
831;DHT22;397;50.564;7.272;2022-12-11T09:01:55;1.70;99.90
831;DHT22;397;50.564;7.272;2022-12-11T09:04:22;1.70;99.90
831;DHT22;397;50.564;7.272;2022-12-11T09:06:50;1.70;99.90
831;DHT22;397;50.564;7.272;2022-12-11T09:09:17;1.60;99.90
831;DHT22;397;50.564;7.272;2022-12-11T09:11:45;1.60;99.90
831;DHT22;397;50.564;7.272;2022-12-11T09:14:12;1.60;99.90
831;DHT22;397;50.564;7.272;2022-12-11T09:16:41;1.60;99.90
831;DHT22;397;50.564;7.272;2022-12-11T09:19:11;1.50;99.90
831;DHT22;397;50.564;7.272;2022-12-11T09:21:40;1.60;99.90
831;DHT22;397;50.564;7.272;2022-12-11T09:24:09;1.60;99.90
831;DHT22;397;50.564;7.272;2022-12-11T09:26:37;1.60;99.90
831;DHT22;397;50.564;7.272;2022-12-11T09:29:06;1.50;99.90
831;DHT22;397;50.564;7.272;2022-12-11T09:31:35;1.60;99.90
831;DHT22;397;50.564;7.272;2022-12-11T09:34:06;1.70;99.90
831;DHT22;397;50.564;7.272;2022-12-11T09:36:34;1.70;99.90
831;DHT22;397;50.564;7.272;2022-12-11T09:39:03;1.50;99.90
831;DHT22;397;50.564;7.272;2022-12-11T09:41:39;1.40;99.90
831;DHT22;397;50.564;7.272;2022-12-11T09:46:50;1.90;99.90
831;DHT22;397;50.564;7.272;2022-12-11T09:49:27;1.90;99.90
831;DHT22;397;50.564;7.272;2022-12-11T09:54:53;1.90;99.90
831;DHT22;397;50.564;7.272;2022-12-11T10:06:00;2.10;99.90
831;DHT22;397;50.564;7.272;2022-12-11T10:14:37;2.00;99.90
831;DHT22;397;50.564;7.272;2022-12-11T10:19:36;2.00;99.90
831;DHT22;397;50.564;7.272;2022-12-11T10:22:04;2.00;99.90
831;DHT22;397;50.564;7.272;2022-12-11T10:27:18;2.00;99.90
831;DHT22;397;50.564;7.272;2022-12-11T10:29:51;2.20;99.90
831;DHT22;397;50.564;7.272;2022-12-11T10:32:24;2.30;99.90
831;DHT22;397;50.564;7.272;2022-12-11T10:35:01;2.40;99.90
831;DHT22;397;50.564;7.272;2022-12-11T10:37:29;2.40;99.90
831;DHT22;397;50.564;7.272;2022-12-11T10:39:56;2.30;99.90
831;DHT22;397;50.564;7.272;2022-12-11T10:42:24;2.40;99.90
831;DHT22;397;50.564;7.272;2022-12-11T10:45:00;2.30;99.90
831;DHT22;397;50.564;7.272;2022-12-11T10:47:28;2.10;99.90
831;DHT22;397;50.564;7.272;2022-12-11T10:49:57;2.30;99.90
831;DHT22;397;50.564;7.272;2022-12-11T10:54:58;2.20;99.90
831;DHT22;397;50.564;7.272;2022-12-11T10:57:34;2.40;99.90
831;DHT22;397;50.564;7.272;2022-12-11T11:00:00;2.30;99.90
831;DHT22;397;50.564;7.272;2022-12-11T11:02:36;2.40;99.90
831;DHT22;397;50.564;7.272;2022-12-11T11:05:14;2.50;99.90
831;DHT22;397;50.564;7.272;2022-12-11T11:07:42;2.20;99.90
831;DHT22;397;50.564;7.272;2022-12-11T11:12:43;2.30;99.90
831;DHT22;397;50.564;7.272;2022-12-11T11:15:21;2.50;99.90
831;DHT22;397;50.564;7.272;2022-12-11T11:17:55;2.50;99.90
831;DHT22;397;50.564;7.272;2022-12-11T11:20:26;2.50;99.90
831;DHT22;397;50.564;7.272;2022-12-11T11:22:51;2.60;99.90
831;DHT22;397;50.564;7.272;2022-12-11T11:25:21;2.50;99.90
831;DHT22;397;50.564;7.272;2022-12-11T11:27:55;2.70;99.90
831;DHT22;397;50.564;7.272;2022-12-11T11:30:31;2.70;99.90
831;DHT22;397;50.564;7.272;2022-12-11T11:33:04;2.70;99.90
831;DHT22;397;50.564;7.272;2022-12-11T11:35:32;2.70;99.90
831;DHT22;397;50.564;7.272;2022-12-11T11:38:17;2.80;99.90
831;DHT22;397;50.564;7.272;2022-12-11T11:40:54;2.80;99.90
831;DHT22;397;50.564;7.272;2022-12-11T11:43:37;2.70;99.90
831;DHT22;397;50.564;7.272;2022-12-11T11:49:13;2.60;99.90
831;DHT22;397;50.564;7.272;2022-12-11T11:51:51;2.60;99.90
831;DHT22;397;50.564;7.272;2022-12-11T11:54:38;2.50;99.90
831;DHT22;397;50.564;7.272;2022-12-11T12:00:03;2.70;99.90
831;DHT22;397;50.564;7.272;2022-12-11T12:02:31;2.60;99.90
831;DHT22;397;50.564;7.272;2022-12-11T12:04:59;2.60;99.90
831;DHT22;397;50.564;7.272;2022-12-11T12:07:39;2.60;99.90
831;DHT22;397;50.564;7.272;2022-12-11T12:10:28;2.70;99.90
831;DHT22;397;50.564;7.272;2022-12-11T12:13:16;2.60;99.90
831;DHT22;397;50.564;7.272;2022-12-11T12:15:50;2.80;99.90
831;DHT22;397;50.564;7.272;2022-12-11T12:18:41;3.00;99.90
831;DHT22;397;50.564;7.272;2022-12-11T12:26:31;2.90;99.90
831;DHT22;397;50.564;7.272;2022-12-11T12:29:22;2.90;99.90
831;DHT22;397;50.564;7.272;2022-12-11T12:31:58;2.90;99.90
831;DHT22;397;50.564;7.272;2022-12-11T12:34:47;2.90;99.90
831;DHT22;397;50.564;7.272;2022-12-11T12:37:11;2.80;99.90
831;DHT22;397;50.564;7.272;2022-12-11T12:39:45;2.80;99.90
831;DHT22;397;50.564;7.272;2022-12-11T12:47:45;2.50;99.90
831;DHT22;397;50.564;7.272;2022-12-11T12:50:19;2.60;99.90
831;DHT22;397;50.564;7.272;2022-12-11T12:52:47;2.70;99.90
831;DHT22;397;50.564;7.272;2022-12-11T12:55:30;2.70;99.90
831;DHT22;397;50.564;7.272;2022-12-11T12:58:00;2.40;99.90
831;DHT22;397;50.564;7.272;2022-12-11T13:00:43;2.30;99.90
831;DHT22;397;50.564;7.272;2022-12-11T13:03:16;2.40;99.90
831;DHT22;397;50.564;7.272;2022-12-11T13:06:03;2.60;99.90
831;DHT22;397;50.564;7.272;2022-12-11T13:08:38;2.80;99.90
831;DHT22;397;50.564;7.272;2022-12-11T13:11:09;2.90;99.90
831;DHT22;397;50.564;7.272;2022-12-11T13:13:44;3.00;99.90
831;DHT22;397;50.564;7.272;2022-12-11T13:18:48;3.10;99.90
831;DHT22;397;50.564;7.272;2022-12-11T13:26:48;3.20;99.90
831;DHT22;397;50.564;7.272;2022-12-11T13:29:37;3.20;99.90
831;DHT22;397;50.564;7.272;2022-12-11T13:32:20;3.30;99.90
831;DHT22;397;50.564;7.272;2022-12-11T13:34:54;3.20;99.90
831;DHT22;397;50.564;7.272;2022-12-11T13:38:02;3.30;99.90
831;DHT22;397;50.564;7.272;2022-12-11T13:40:26;3.20;99.90
831;DHT22;397;50.564;7.272;2022-12-11T13:45:32;3.30;99.90
831;DHT22;397;50.564;7.272;2022-12-11T13:47:59;3.30;99.90
831;DHT22;397;50.564;7.272;2022-12-11T13:50:32;3.40;99.90
831;DHT22;397;50.564;7.272;2022-12-11T13:53:01;3.50;99.90
831;DHT22;397;50.564;7.272;2022-12-11T13:55:33;3.50;99.90
831;DHT22;397;50.564;7.272;2022-12-11T13:58:01;3.50;99.90
831;DHT22;397;50.564;7.272;2022-12-11T14:00:30;3.40;99.90
831;DHT22;397;50.564;7.272;2022-12-11T14:03:00;3.20;99.90
831;DHT22;397;50.564;7.272;2022-12-11T14:05:29;3.10;99.90
831;DHT22;397;50.564;7.272;2022-12-11T14:07:58;3.10;99.90
831;DHT22;397;50.564;7.272;2022-12-11T14:10:32;3.00;99.90
831;DHT22;397;50.564;7.272;2022-12-11T14:12:59;3.20;99.90
831;DHT22;397;50.564;7.272;2022-12-11T14:15:29;3.10;99.90
831;DHT22;397;50.564;7.272;2022-12-11T14:17:58;3.00;99.90
831;DHT22;397;50.564;7.272;2022-12-11T14:20:29;3.00;99.90
831;DHT22;397;50.564;7.272;2022-12-11T14:23:17;2.90;99.90
831;DHT22;397;50.564;7.272;2022-12-11T14:26:00;2.90;99.90
831;DHT22;397;50.564;7.272;2022-12-11T14:28:35;2.90;99.90
831;DHT22;397;50.564;7.272;2022-12-11T14:31:00;2.70;99.90
831;DHT22;397;50.564;7.272;2022-12-11T14:33:34;2.70;99.90
831;DHT22;397;50.564;7.272;2022-12-11T14:36:02;2.60;99.90
831;DHT22;397;50.564;7.272;2022-12-11T14:38:39;2.70;99.90
831;DHT22;397;50.564;7.272;2022-12-11T14:41:12;2.70;99.90
831;DHT22;397;50.564;7.272;2022-12-11T14:43:45;2.70;99.90
831;DHT22;397;50.564;7.272;2022-12-11T14:46:21;2.60;99.90
831;DHT22;397;50.564;7.272;2022-12-11T14:48:54;2.60;99.90
831;DHT22;397;50.564;7.272;2022-12-11T14:51:24;2.60;99.90
831;DHT22;397;50.564;7.272;2022-12-11T14:53:54;2.60;99.90
831;DHT22;397;50.564;7.272;2022-12-11T14:56:24;2.60;99.90
831;DHT22;397;50.564;7.272;2022-12-11T15:01:31;2.50;99.90
831;DHT22;397;50.564;7.272;2022-12-11T15:04:26;2.50;99.90
831;DHT22;397;50.564;7.272;2022-12-11T15:06:49;2.40;99.90
831;DHT22;397;50.564;7.272;2022-12-11T15:12:14;2.40;99.90
831;DHT22;397;50.564;7.272;2022-12-11T15:14:57;2.30;99.90
831;DHT22;397;50.564;7.272;2022-12-11T15:17:26;2.30;99.90
831;DHT22;397;50.564;7.272;2022-12-11T15:20:00;2.30;99.90
831;DHT22;397;50.564;7.272;2022-12-11T15:22:26;2.30;99.90
831;DHT22;397;50.564;7.272;2022-12-11T15:24:56;2.20;99.90
831;DHT22;397;50.564;7.272;2022-12-11T15:29:54;2.30;99.90
831;DHT22;397;50.564;7.272;2022-12-11T15:32:23;2.30;99.90
831;DHT22;397;50.564;7.272;2022-12-11T15:34:52;2.40;99.90
831;DHT22;397;50.564;7.272;2022-12-11T15:37:23;2.50;99.90
831;DHT22;397;50.564;7.272;2022-12-11T15:39:52;2.50;99.90
831;DHT22;397;50.564;7.272;2022-12-11T15:42:25;2.30;99.90
831;DHT22;397;50.564;7.272;2022-12-11T15:44:53;2.30;99.90
831;DHT22;397;50.564;7.272;2022-12-11T15:47:23;2.50;99.90
831;DHT22;397;50.564;7.272;2022-12-11T15:49:53;2.60;99.90
831;DHT22;397;50.564;7.272;2022-12-11T15:52:21;2.40;99.90
831;DHT22;397;50.564;7.272;2022-12-11T15:54:49;2.50;99.90
831;DHT22;397;50.564;7.272;2022-12-11T15:57:18;2.60;99.90
831;DHT22;397;50.564;7.272;2022-12-11T16:00:06;2.50;99.90
831;DHT22;397;50.564;7.272;2022-12-11T16:02:33;2.60;99.90
831;DHT22;397;50.564;7.272;2022-12-11T16:05:01;2.60;99.90
831;DHT22;397;50.564;7.272;2022-12-11T16:07:28;2.60;99.90
831;DHT22;397;50.564;7.272;2022-12-11T16:09:56;2.50;99.90
831;DHT22;397;50.564;7.272;2022-12-11T16:12:24;2.50;99.90
831;DHT22;397;50.564;7.272;2022-12-11T16:14:51;2.50;99.90
831;DHT22;397;50.564;7.272;2022-12-11T16:17:19;2.50;99.90
831;DHT22;397;50.564;7.272;2022-12-11T16:19:46;2.50;99.90
831;DHT22;397;50.564;7.272;2022-12-11T16:22:14;2.50;99.90
831;DHT22;397;50.564;7.272;2022-12-11T16:24:42;2.50;99.90
831;DHT22;397;50.564;7.272;2022-12-11T16:27:09;2.50;99.90
831;DHT22;397;50.564;7.272;2022-12-11T16:29:39;2.50;99.90
831;DHT22;397;50.564;7.272;2022-12-11T16:32:07;2.50;99.90
831;DHT22;397;50.564;7.272;2022-12-11T16:34:36;2.50;99.90
831;DHT22;397;50.564;7.272;2022-12-11T16:37:05;2.50;99.90
831;DHT22;397;50.564;7.272;2022-12-11T16:39:35;2.50;99.90
831;DHT22;397;50.564;7.272;2022-12-11T16:42:04;2.50;99.90
831;DHT22;397;50.564;7.272;2022-12-11T16:44:32;2.50;99.90
831;DHT22;397;50.564;7.272;2022-12-11T16:46:59;2.50;99.90
831;DHT22;397;50.564;7.272;2022-12-11T16:49:27;2.40;99.90
831;DHT22;397;50.564;7.272;2022-12-11T16:51:56;2.40;99.90
831;DHT22;397;50.564;7.272;2022-12-11T16:54:23;2.40;99.90
831;DHT22;397;50.564;7.272;2022-12-11T16:56:51;2.30;99.90
831;DHT22;397;50.564;7.272;2022-12-11T16:59:18;2.40;99.90
831;DHT22;397;50.564;7.272;2022-12-11T17:01:46;2.40;99.90
831;DHT22;397;50.564;7.272;2022-12-11T17:04:15;2.30;99.90
831;DHT22;397;50.564;7.272;2022-12-11T17:06:43;2.40;99.90
831;DHT22;397;50.564;7.272;2022-12-11T17:09:11;2.40;99.90
831;DHT22;397;50.564;7.272;2022-12-11T17:11:39;2.50;99.90
831;DHT22;397;50.564;7.272;2022-12-11T17:14:08;2.50;99.90
831;DHT22;397;50.564;7.272;2022-12-11T17:16:37;2.50;99.90
831;DHT22;397;50.564;7.272;2022-12-11T17:19:05;2.50;99.90
831;DHT22;397;50.564;7.272;2022-12-11T17:21:32;2.50;99.90
831;DHT22;397;50.564;7.272;2022-12-11T17:24:00;2.40;99.90
831;DHT22;397;50.564;7.272;2022-12-11T17:26:27;2.40;99.90
831;DHT22;397;50.564;7.272;2022-12-11T17:28:56;2.40;99.90
831;DHT22;397;50.564;7.272;2022-12-11T17:31:23;2.50;99.90
831;DHT22;397;50.564;7.272;2022-12-11T17:33:51;2.40;99.90
831;DHT22;397;50.564;7.272;2022-12-11T17:36:20;2.40;99.90
831;DHT22;397;50.564;7.272;2022-12-11T17:38:48;2.50;99.90
831;DHT22;397;50.564;7.272;2022-12-11T17:41:16;2.40;99.90
831;DHT22;397;50.564;7.272;2022-12-11T17:43:43;2.40;99.90
831;DHT22;397;50.564;7.272;2022-12-11T17:46:11;2.40;99.90
831;DHT22;397;50.564;7.272;2022-12-11T17:48:39;2.30;99.90
831;DHT22;397;50.564;7.272;2022-12-11T17:51:08;2.30;99.90
831;DHT22;397;50.564;7.272;2022-12-11T17:53:37;2.40;99.90
831;DHT22;397;50.564;7.272;2022-12-11T17:56:06;2.40;99.90
831;DHT22;397;50.564;7.272;2022-12-11T17:58:34;2.40;99.90
831;DHT22;397;50.564;7.272;2022-12-11T18:01:07;2.40;99.90
831;DHT22;397;50.564;7.272;2022-12-11T18:03:35;2.40;99.90
831;DHT22;397;50.564;7.272;2022-12-11T18:06:06;2.40;99.90
831;DHT22;397;50.564;7.272;2022-12-11T18:08:34;2.40;99.90
831;DHT22;397;50.564;7.272;2022-12-11T18:11:11;2.50;99.90
831;DHT22;397;50.564;7.272;2022-12-11T18:13:35;2.40;99.90
831;DHT22;397;50.564;7.272;2022-12-11T18:16:09;2.40;99.90
831;DHT22;397;50.564;7.272;2022-12-11T18:18:36;2.40;99.90
831;DHT22;397;50.564;7.272;2022-12-11T18:21:04;2.40;99.90
831;DHT22;397;50.564;7.272;2022-12-11T18:23:32;2.40;99.90
831;DHT22;397;50.564;7.272;2022-12-11T18:26:00;2.40;99.90
831;DHT22;397;50.564;7.272;2022-12-11T18:28:27;2.40;99.90
831;DHT22;397;50.564;7.272;2022-12-11T18:31:01;2.40;99.90
831;DHT22;397;50.564;7.272;2022-12-11T18:33:30;2.40;99.90
831;DHT22;397;50.564;7.272;2022-12-11T18:35:57;2.30;99.90